createdAt,value
2018-01-11T00:01:38.403Z,6.18
2018-01-11T00:04:08.191Z,3.30
2018-01-11T00:06:38.871Z,3.92
2018-01-11T00:09:08.974Z,8.05
2018-01-11T00:11:38.757Z,9.63
2018-01-11T00:14:09.560Z,5.93
2018-01-11T00:16:39.594Z,12.07
2018-01-11T00:19:09.262Z,15.30
2018-01-11T00:21:43.817Z,12.30
2018-01-11T00:24:15.112Z,11.10
2018-01-11T00:26:45.124Z,13.30
2018-01-11T00:29:15.063Z,14.15
2018-01-11T00:31:47.109Z,15.68
2018-01-11T00:34:18.221Z,13.10
2018-01-11T00:36:48.080Z,13.20
2018-01-11T00:39:17.942Z,14.63
2018-01-11T00:41:47.856Z,18.42
2018-01-11T00:44:17.705Z,11.90
2018-01-11T00:46:47.930Z,14.40
2018-01-11T00:49:18.115Z,15.13
2018-01-11T00:51:48.362Z,21.05
2018-01-11T00:54:18.329Z,19.42
2018-01-11T00:56:50.257Z,21.58
2018-01-11T00:59:20.831Z,20.25
2018-01-11T01:01:51.116Z,19.15
2018-01-11T01:04:22.338Z,20.20
2018-01-11T01:06:51.939Z,23.30
2018-01-11T01:09:22.810Z,21.83
2018-01-11T01:11:53.885Z,25.23
2018-01-11T01:14:23.949Z,21.45
2018-01-11T01:16:53.969Z,27.20
2018-01-11T01:19:26.219Z,19.48
2018-01-11T01:21:59.103Z,22.40
2018-01-11T01:24:30.468Z,23.15
2018-01-11T01:27:00.808Z,24.10
2018-01-11T01:29:31.257Z,21.23
2018-01-11T01:32:01.635Z,19.23
2018-01-11T01:34:31.854Z,23.30
2018-01-11T01:37:01.851Z,27.90
2018-01-11T01:39:32.393Z,26.52
2018-01-11T01:42:02.644Z,22.13
2018-01-11T01:44:32.599Z,22.87
2018-01-11T01:47:02.877Z,22.35
2018-01-11T01:49:33.671Z,23.62
2018-01-11T01:52:04.235Z,23.30
2018-01-11T01:54:34.746Z,30.20
2018-01-11T01:57:04.934Z,29.67
2018-01-11T01:59:36.858Z,34.83
2018-01-11T02:02:06.796Z,27.85
2018-01-11T02:04:36.829Z,22.73
2018-01-11T02:07:07.276Z,25.15
2018-01-11T02:09:39.227Z,25.33
2018-01-11T02:12:13.632Z,19.98
2018-01-11T02:14:44.586Z,25.83
2018-01-11T02:17:15.712Z,22.73
2018-01-11T02:19:46.431Z,22.73
2018-01-11T02:22:16.497Z,33.65
2018-01-11T02:24:46.888Z,40.22
2018-01-11T02:27:16.824Z,28.62
2018-01-11T02:29:46.661Z,29.02
2018-01-11T02:32:16.375Z,25.55
2018-01-11T02:34:46.498Z,22.02
2018-01-11T02:37:16.506Z,21.87
2018-01-11T02:39:46.711Z,20.40
2018-01-11T02:42:18.113Z,19.92
2018-01-11T02:44:47.975Z,18.35
2018-01-11T02:47:18.399Z,20.10
2018-01-11T02:49:48.060Z,18.80
2018-01-11T02:52:18.002Z,17.70
2018-01-11T02:54:49.100Z,19.05
2018-01-11T02:57:19.107Z,19.50
2018-01-11T02:59:49.374Z,16.35
2018-01-11T03:02:19.384Z,14.93
2018-01-11T03:04:49.508Z,14.48
2018-01-11T03:07:19.351Z,16.50
2018-01-11T03:09:49.697Z,13.55
2018-01-11T03:12:19.450Z,11.27
2018-01-11T03:14:50.537Z,13.35
2018-01-11T03:17:20.317Z,15.35
2018-01-11T03:19:51.152Z,12.02
2018-01-11T03:22:20.987Z,11.32
2018-01-11T03:24:51.714Z,10.68
2018-01-11T03:27:21.813Z,11.07
2018-01-11T03:29:51.480Z,10.80
2018-01-11T03:32:22.259Z,12.20
2018-01-11T03:34:52.284Z,10.43
2018-01-11T03:37:22.472Z,11.25
2018-01-11T03:39:53.518Z,12.43
2018-01-11T03:42:24.684Z,11.18
2018-01-11T03:44:56.450Z,13.07
2018-01-11T03:47:26.576Z,14.60
2018-01-11T03:49:57.404Z,13.20
2018-01-11T03:52:27.544Z,12.75
2018-01-11T03:54:58.168Z,15.48
2018-01-11T03:57:28.368Z,13.38
2018-01-11T03:59:58.371Z,12.98
2018-01-11T04:02:28.171Z,12.73
2018-01-11T04:04:58.143Z,10.60
2018-01-11T04:07:28.353Z,13.75
2018-01-11T04:09:58.611Z,10.48
2018-01-11T04:12:27.957Z,11.90
2018-01-11T04:14:58.003Z,11.15
2018-01-11T04:17:28.306Z,11.88
2018-01-11T04:19:58.074Z,10.60
2018-01-11T04:22:28.184Z,12.10
2018-01-11T04:24:58.382Z,13.32
2018-01-11T04:27:28.130Z,11.90
2018-01-11T04:29:57.815Z,12.13
2018-01-11T04:32:27.520Z,11.35
2018-01-11T04:34:58.079Z,12.35
2018-01-11T04:37:27.882Z,23.30
2018-01-11T04:39:57.784Z,14.60
2018-01-11T04:42:27.415Z,16.07
2018-01-11T04:44:57.425Z,13.03
2018-01-11T04:47:27.353Z,13.53
2018-01-11T04:49:57.620Z,17.50
2018-01-11T04:52:27.343Z,16.67
2018-01-11T04:54:58.204Z,15.15
2018-01-11T04:57:29.702Z,12.88
2018-01-11T04:59:59.787Z,11.80
2018-01-11T05:02:29.837Z,13.05
2018-01-11T05:04:59.945Z,12.18
2018-01-11T05:07:30.257Z,12.55
2018-01-11T05:10:02.196Z,14.85
2018-01-11T05:12:32.085Z,13.93
2018-01-11T05:15:02.136Z,13.95
2018-01-11T05:17:31.684Z,15.90
2018-01-11T05:20:03.089Z,14.45
2018-01-11T05:22:32.723Z,16.85
2018-01-11T05:25:02.614Z,15.32
2018-01-11T05:27:32.682Z,13.43
2018-01-11T05:30:02.574Z,17.50
2018-01-11T05:32:32.095Z,13.93
2018-01-11T05:35:01.868Z,14.55
2018-01-11T05:37:32.566Z,13.13
2018-01-11T05:40:01.442Z,19.15
2018-01-11T05:42:31.832Z,12.55
2018-01-11T05:45:02.051Z,14.32
2018-01-11T05:47:31.382Z,14.18
2018-01-11T05:50:01.043Z,15.10
2018-01-11T05:52:30.590Z,16.53
2018-01-11T05:55:01.613Z,13.30
2018-01-11T05:57:31.269Z,13.20
2018-01-11T06:00:01.733Z,14.73
2018-01-11T06:02:31.860Z,12.27
2018-01-11T06:05:01.057Z,15.05
2018-01-11T06:07:30.252Z,14.87
2018-01-11T06:10:00.125Z,12.40
2018-01-11T06:12:29.897Z,12.80
2018-01-11T06:15:00.780Z,14.82
2018-01-11T06:17:30.802Z,13.10
2018-01-11T06:20:03.845Z,12.77
2018-01-11T06:22:37.127Z,14.23
2018-01-11T06:25:08.087Z,15.02
2018-01-11T06:27:37.541Z,11.12
2018-01-11T06:30:07.738Z,14.02
2018-01-11T06:32:37.290Z,12.20
2018-01-11T06:35:09.519Z,12.45
2018-01-11T06:37:39.344Z,10.23
2018-01-11T06:40:08.540Z,11.75
2018-01-11T06:42:38.516Z,13.07
2018-01-11T06:45:07.796Z,9.23
2018-01-11T06:47:37.638Z,10.40
2018-01-11T06:50:07.485Z,10.45
2018-01-11T06:52:37.286Z,11.68
2018-01-11T06:55:06.604Z,9.50
2018-01-11T06:57:37.466Z,11.12
2018-01-11T07:00:07.849Z,12.23
2018-01-11T07:02:38.242Z,11.43
2018-01-11T07:05:07.557Z,14.40
2018-01-11T07:07:37.255Z,17.45
2018-01-11T07:10:07.246Z,11.93
2018-01-11T07:12:36.753Z,11.70
2018-01-11T07:15:06.565Z,10.17
2018-01-11T07:17:36.173Z,10.60
2018-01-11T07:20:06.447Z,9.03
2018-01-11T07:22:35.987Z,7.50
2018-01-11T07:25:12.238Z,7.17
2018-01-11T07:27:42.620Z,7.27
2018-01-11T07:30:12.619Z,4.40
2018-01-11T07:32:41.993Z,3.67
2018-01-11T07:35:11.963Z,4.67
2018-01-11T07:37:42.938Z,3.90
2018-01-11T07:40:15.132Z,2.13
2018-01-11T07:42:45.286Z,2.93
2018-01-11T07:45:15.131Z,2.80
2018-01-11T07:47:45.942Z,3.47
2018-01-11T07:50:15.824Z,1.73
2018-01-11T07:52:45.546Z,2.50
2018-01-11T07:55:15.228Z,2.90
2018-01-11T07:57:45.814Z,4.07
2018-01-11T08:00:15.683Z,3.60
2018-01-11T08:02:46.556Z,2.23
2018-01-11T08:05:15.809Z,3.60
2018-01-11T08:07:45.516Z,4.03
2018-01-11T08:10:16.070Z,2.53
2018-01-11T08:12:45.859Z,2.73
2018-01-11T08:15:15.771Z,1.80
2018-01-11T08:17:45.352Z,2.30
2018-01-11T08:20:16.301Z,5.30
2018-01-11T08:22:45.858Z,6.00
2018-01-11T08:25:15.454Z,2.63
2018-01-11T08:27:45.207Z,4.50
2018-01-11T08:30:14.811Z,2.77
2018-01-11T08:32:45.089Z,2.63
2018-01-11T08:35:14.925Z,2.50
2018-01-11T08:37:45.030Z,3.10
2018-01-11T08:40:14.516Z,2.23
2018-01-11T08:42:44.952Z,3.00
2018-01-11T08:45:15.149Z,2.50
2018-01-11T08:47:44.591Z,4.20
2018-01-11T08:50:14.499Z,3.10
2018-01-11T08:52:44.227Z,4.30
2018-01-11T08:55:13.868Z,3.30
2018-01-11T08:57:43.699Z,2.80
2018-01-11T09:00:13.644Z,4.00
2018-01-11T09:02:43.485Z,4.30
2018-01-11T09:05:13.949Z,2.87
2018-01-11T09:07:43.686Z,2.77
2018-01-11T09:10:13.582Z,5.10
2018-01-11T09:12:43.871Z,3.63
2018-01-11T09:15:13.405Z,2.43
2018-01-11T09:17:43.268Z,4.73
2018-01-11T09:20:13.020Z,2.87
2018-01-11T09:22:42.744Z,2.57
2018-01-11T09:25:12.712Z,3.30
2018-01-11T09:27:43.880Z,5.20
2018-01-11T09:30:13.593Z,5.67
2018-01-11T09:32:43.297Z,4.20
2018-01-11T09:35:13.078Z,2.20
2018-01-11T09:37:43.040Z,2.53
2018-01-11T09:40:13.650Z,3.03
2018-01-11T09:42:43.225Z,4.40
2018-01-11T09:45:14.239Z,2.03
2018-01-11T09:47:43.856Z,5.10
2018-01-11T09:50:14.008Z,3.93
2018-01-11T09:52:43.662Z,2.07
2018-01-11T09:55:13.612Z,2.23
2018-01-11T09:57:43.315Z,3.17
2018-01-11T10:00:13.799Z,2.00
2018-01-11T10:02:43.753Z,3.70
2018-01-11T10:05:14.555Z,2.90
2018-01-11T10:07:44.253Z,4.70
2018-01-11T10:10:14.100Z,4.60
2018-01-11T10:12:43.901Z,8.27
2018-01-11T10:15:13.536Z,5.47
2018-01-11T10:17:44.172Z,3.60
2018-01-11T10:20:13.762Z,2.63
2018-01-11T10:22:44.238Z,2.67
2018-01-11T10:25:14.093Z,4.57
2018-01-11T10:27:44.157Z,3.80
2018-01-11T10:30:13.638Z,4.80
2018-01-11T10:32:43.578Z,6.20
2018-01-11T10:35:13.602Z,6.07
2018-01-11T10:37:43.702Z,5.70
2018-01-11T10:40:13.548Z,6.43
2018-01-11T10:42:43.429Z,3.00
2018-01-11T10:45:13.035Z,4.40
2018-01-11T10:47:43.076Z,2.37
2018-01-11T10:50:12.773Z,2.80
2018-01-11T10:52:42.210Z,2.97
2018-01-11T10:55:12.026Z,3.40
2018-01-11T10:57:41.523Z,3.20
2018-01-11T11:00:11.367Z,3.33
2018-01-11T11:02:47.168Z,3.60
2018-01-11T11:05:16.928Z,3.13
2018-01-11T11:07:46.757Z,2.83
2018-01-11T11:10:17.731Z,2.80
2018-01-11T11:12:47.259Z,2.40
2018-01-11T11:15:18.253Z,2.17
2018-01-11T11:17:48.012Z,3.33
2018-01-11T11:20:18.026Z,2.60
2018-01-11T11:22:47.837Z,2.17
2018-01-11T11:25:17.692Z,2.90
2018-01-11T11:27:47.821Z,3.03
2018-01-11T11:30:17.711Z,2.10
2018-01-11T11:32:49.018Z,2.93
2018-01-11T11:35:18.854Z,2.80
2018-01-11T11:37:48.529Z,2.70
2018-01-11T11:40:18.651Z,3.33
2018-01-11T11:42:48.228Z,8.87
2018-01-11T11:45:17.985Z,29.07
2018-01-11T11:47:47.607Z,8.60
2018-01-11T11:50:17.904Z,12.30
2018-01-11T11:52:47.418Z,8.83
2018-01-11T11:55:17.504Z,2.70
2018-01-11T11:57:47.679Z,6.90
2018-01-11T12:00:17.843Z,5.93
2018-01-11T12:02:47.727Z,2.33
2018-01-11T12:05:17.079Z,3.47
2018-01-11T12:07:46.656Z,4.57
2018-01-11T12:10:16.274Z,5.40
2018-01-11T12:12:45.956Z,2.97
2018-01-11T12:15:16.173Z,1.77
2018-01-11T12:17:45.962Z,2.77
2018-01-11T12:20:17.006Z,2.13
2018-01-11T12:22:47.012Z,1.77
2018-01-11T12:25:16.759Z,2.77
2018-01-11T12:27:47.440Z,8.80
2018-01-11T12:30:19.050Z,6.77
2018-01-11T12:32:48.873Z,3.37
2018-01-11T12:35:19.114Z,4.40
2018-01-11T12:37:49.334Z,3.07
2018-01-11T12:40:19.314Z,1.97
2018-01-11T12:42:49.695Z,2.10
2018-01-11T12:45:19.793Z,3.93
2018-01-11T12:47:49.513Z,2.23
2018-01-11T12:50:19.764Z,2.60
2018-01-11T12:52:49.543Z,2.37
2018-01-11T12:55:19.158Z,3.63
2018-01-11T12:57:49.605Z,3.70
2018-01-11T13:00:19.746Z,2.20
2018-01-11T13:02:49.082Z,2.73
2018-01-11T13:05:18.655Z,2.80
2018-01-11T13:07:48.851Z,2.83
2018-01-11T13:10:18.525Z,3.07
2018-01-11T13:12:48.734Z,2.93
2018-01-11T13:15:21.323Z,4.03
2018-01-11T13:17:52.076Z,2.17
2018-01-11T13:20:21.953Z,2.07
2018-01-11T13:22:52.127Z,1.60
2018-01-11T13:25:22.184Z,2.13
2018-01-11T13:27:51.994Z,2.53
2018-01-11T13:30:22.012Z,2.33
2018-01-11T13:32:52.544Z,2.17
2018-01-11T13:35:22.739Z,2.63
2018-01-11T13:37:53.029Z,4.13
2018-01-11T13:40:23.565Z,2.20
2018-01-11T13:42:53.018Z,3.50
2018-01-11T13:45:22.703Z,2.08
2018-01-11T13:50:27.331Z,4.67
2018-01-11T13:52:57.061Z,2.83
2018-01-11T13:55:26.860Z,4.20
2018-01-11T13:57:56.712Z,3.30
2018-01-11T14:00:27.082Z,2.17
2018-01-11T14:02:57.385Z,2.78
2018-01-11T14:05:27.244Z,2.47
2018-01-11T14:07:58.081Z,2.17
2018-01-11T14:10:27.869Z,2.27
2018-01-11T14:12:57.780Z,1.73
2018-01-11T14:15:27.530Z,4.27
2018-01-11T14:17:57.250Z,2.10
2018-01-11T14:20:27.173Z,2.60
2018-01-11T14:22:56.863Z,2.67
2018-01-11T14:25:26.783Z,2.83
2018-01-11T14:27:56.597Z,3.53
2018-01-11T14:30:27.696Z,4.00
2018-01-11T14:32:57.304Z,4.00
2018-01-11T14:35:26.963Z,4.73
2018-01-11T14:37:57.347Z,4.13
2018-01-11T14:40:27.065Z,2.63
2018-01-11T14:42:56.899Z,3.83
2018-01-11T14:45:28.371Z,2.90
2018-01-11T14:47:58.320Z,3.17
2018-01-11T14:50:28.840Z,2.13
2018-01-11T14:52:58.303Z,3.13
2018-01-11T14:55:28.669Z,2.03
2018-01-11T14:57:58.508Z,2.78
2018-01-11T15:00:28.401Z,2.20
2018-01-11T15:02:57.728Z,1.90
2018-01-11T15:05:28.468Z,2.10
2018-01-11T15:07:57.907Z,2.40
2018-01-11T15:10:28.493Z,3.07
2018-01-11T15:12:58.401Z,2.45
2018-01-11T15:15:28.089Z,2.43
2018-01-11T15:17:57.783Z,2.70
2018-01-11T15:20:29.352Z,2.50
2018-01-11T15:22:59.247Z,1.90
2018-01-11T15:25:29.765Z,5.68
2018-01-11T15:27:59.461Z,2.97
2018-01-11T15:30:29.388Z,2.28
2018-01-11T15:32:58.827Z,3.70
2018-01-11T15:35:28.492Z,2.20
2018-01-11T15:37:59.013Z,3.23
2018-01-11T15:40:29.477Z,2.80
2018-01-11T15:42:59.464Z,3.67
2018-01-11T15:45:29.368Z,3.17
2018-01-11T15:47:59.376Z,2.78
2018-01-11T15:50:30.252Z,3.17
2018-01-11T15:52:59.757Z,3.30
2018-01-11T15:55:30.018Z,4.10
2018-01-11T15:58:00.846Z,3.93
2018-01-11T16:00:30.566Z,2.90
2018-01-11T16:03:00.826Z,4.00
2018-01-11T16:05:30.460Z,2.30
2018-01-11T16:08:00.307Z,3.17
2018-01-11T16:10:30.727Z,2.17
2018-01-11T16:13:00.626Z,2.43
2018-01-11T16:15:30.650Z,2.83
2018-01-11T16:18:01.086Z,3.97
2018-01-11T16:20:31.167Z,3.83
2018-01-11T16:23:00.686Z,4.70
2018-01-11T16:25:30.225Z,2.50
2018-01-11T16:27:59.892Z,4.27
2018-01-11T16:30:29.692Z,4.40
2018-01-11T16:32:59.631Z,2.80
2018-01-11T16:35:30.621Z,2.97
2018-01-11T16:37:59.869Z,3.43
2018-01-11T16:40:30.057Z,2.23
2018-01-11T16:43:00.209Z,2.70
2018-01-11T16:45:30.878Z,6.80
2018-01-11T16:48:00.704Z,2.37
2018-01-11T16:50:30.573Z,1.90
2018-01-11T16:53:00.676Z,1.77
2018-01-11T16:55:30.902Z,3.93
2018-01-11T16:58:01.052Z,3.50
2018-01-11T17:00:31.018Z,3.17
2018-01-11T17:03:01.596Z,3.93
2018-01-11T17:05:31.421Z,1.93
2018-01-11T17:08:01.199Z,1.80
2018-01-11T17:10:31.707Z,1.40
2018-01-11T17:13:01.053Z,1.80
2018-01-11T17:15:30.766Z,5.27
2018-01-11T17:18:00.234Z,5.30
2018-01-11T17:20:30.676Z,5.70
2018-01-11T17:23:00.556Z,6.67
2018-01-11T17:25:31.245Z,5.33
2018-01-11T17:28:01.401Z,4.10
2018-01-11T17:30:32.734Z,1.80
2018-01-11T17:33:03.170Z,4.70
2018-01-11T17:35:32.514Z,5.17
2018-01-11T17:38:02.458Z,2.60
2018-01-11T17:40:32.228Z,1.93
2018-01-11T17:43:04.005Z,1.33
2018-01-11T17:45:34.187Z,1.40
2018-01-11T17:48:03.922Z,2.40
2018-01-11T17:50:33.466Z,1.83
2018-01-11T17:53:03.907Z,1.73
2018-01-11T17:55:33.799Z,1.77
2018-01-11T17:58:04.107Z,1.60
2018-01-11T18:00:34.313Z,1.90
2018-01-11T18:03:04.159Z,2.43
2018-01-11T18:05:34.330Z,1.50
2018-01-11T18:08:05.607Z,1.90
2018-01-11T18:10:35.308Z,2.53
2018-01-11T18:13:05.005Z,1.97
2018-01-11T18:15:35.250Z,1.33
2018-01-11T18:18:06.354Z,2.00
2018-01-11T18:20:36.498Z,2.30
2018-01-11T18:23:06.318Z,1.60
2018-01-11T18:25:36.174Z,1.73
2018-01-11T18:28:06.155Z,1.63
2018-01-11T18:30:36.087Z,1.60
2018-01-11T18:33:05.843Z,1.60
2018-01-11T18:35:36.039Z,1.63
2018-01-11T18:38:06.544Z,1.63
2018-01-11T18:40:36.661Z,1.90
2018-01-11T18:43:07.338Z,1.73
2018-01-11T18:45:37.458Z,1.23
2018-01-11T18:48:08.874Z,1.40
2018-01-11T18:50:39.674Z,1.33
2018-01-11T18:53:09.704Z,2.20
2018-01-11T18:55:40.145Z,1.87
2018-01-11T18:58:10.876Z,1.50
2018-01-11T19:00:40.854Z,1.70
2018-01-11T19:03:10.780Z,1.40
2018-01-11T19:05:40.300Z,3.13
2018-01-11T19:08:10.117Z,3.53
2018-01-11T19:10:40.289Z,2.23
2018-01-11T19:13:11.672Z,1.50
2018-01-11T19:15:41.663Z,2.40
2018-01-11T19:18:11.718Z,2.53
2018-01-11T19:20:41.543Z,1.70
2018-01-11T19:23:11.467Z,1.90
2018-01-11T19:25:41.626Z,1.80
2018-01-11T19:28:11.927Z,2.80
2018-01-11T19:30:42.615Z,2.10
2018-01-11T19:33:13.012Z,1.90
2018-01-11T19:35:43.220Z,5.60
2018-01-11T19:38:15.257Z,2.17
2018-01-11T19:40:45.967Z,1.60
2018-01-11T19:43:17.025Z,2.17
2018-01-11T19:45:46.991Z,1.40
2018-01-11T19:48:17.036Z,2.50
2018-01-11T19:50:47.653Z,2.20
2018-01-11T19:56:17.906Z,2.20
2018-01-11T19:58:49.218Z,1.53
2018-01-11T20:01:19.065Z,1.60
2018-01-11T20:03:49.436Z,2.43
2018-01-11T20:06:19.489Z,2.40
2018-01-11T20:08:49.029Z,2.77
2018-01-11T20:11:20.628Z,4.03
2018-01-11T20:13:50.260Z,3.47
2018-01-11T20:16:20.283Z,1.73
2018-01-11T20:18:51.854Z,2.60
2018-01-11T20:21:22.471Z,1.90
2018-01-11T20:23:52.550Z,3.70
2018-01-11T20:26:22.793Z,1.70
2018-01-11T20:28:52.604Z,2.30
2018-01-11T20:31:24.796Z,1.87
2018-01-11T20:33:54.425Z,2.10
2018-01-11T20:36:25.305Z,1.87
2018-01-11T20:38:55.890Z,1.70
2018-01-11T20:41:27.974Z,1.67
2018-01-11T20:43:57.819Z,5.47
2018-01-11T20:46:29.038Z,1.47
2018-01-11T20:48:59.165Z,2.40
2018-01-11T20:51:28.996Z,3.63
2018-01-11T20:54:01.845Z,1.97
2018-01-11T20:56:32.280Z,2.50
2018-01-11T20:59:02.912Z,3.10
2018-01-11T21:01:32.905Z,4.67
2018-01-11T21:04:02.533Z,3.20
2018-01-11T21:06:32.763Z,4.63
2018-01-11T21:09:05.403Z,7.73
2018-01-11T21:11:35.617Z,9.17
2018-01-11T21:14:05.548Z,12.20
2018-01-11T21:16:35.547Z,7.47
2018-01-11T21:19:05.356Z,4.23
2018-01-11T21:21:36.157Z,7.87
2018-01-11T21:24:05.757Z,5.90
2018-01-11T21:26:35.887Z,5.80
2018-01-11T21:29:06.335Z,9.80
2018-01-11T21:31:37.565Z,11.93
2018-01-11T21:34:07.431Z,5.50
2018-01-11T21:36:37.668Z,4.67
2018-01-11T21:39:08.572Z,7.63
2018-01-11T21:41:38.534Z,11.77
2018-01-11T21:44:09.248Z,6.33
2018-01-11T21:46:39.071Z,8.47
2018-01-11T21:49:09.286Z,8.53
2018-01-11T21:51:40.031Z,10.97
2018-01-11T21:54:09.987Z,7.13
2018-01-11T21:56:41.905Z,5.23
2018-01-11T21:59:11.618Z,3.90
2018-01-11T22:01:41.954Z,6.83
2018-01-11T22:04:12.573Z,9.07
2018-01-11T22:06:42.277Z,6.23
2018-01-11T22:09:12.455Z,10.60
2018-01-11T22:11:43.030Z,6.60
2018-01-11T22:14:12.836Z,4.93
2018-01-11T22:16:43.227Z,6.60
2018-01-11T22:19:13.053Z,9.33
2018-01-11T22:21:43.169Z,6.50
2018-01-11T22:24:13.671Z,9.20
2018-01-11T22:26:43.644Z,12.23
2018-01-11T22:29:13.337Z,7.80
2018-01-11T22:31:45.573Z,6.40
2018-01-11T22:34:15.920Z,16.17
2018-01-11T22:36:45.836Z,10.10
2018-01-11T22:39:16.882Z,10.53
2018-01-11T22:41:47.030Z,10.20
2018-01-11T22:44:16.551Z,10.33
2018-01-11T22:46:46.320Z,11.30
2018-01-11T22:49:15.709Z,9.93
2018-01-11T22:51:45.270Z,8.27
2018-01-11T22:54:15.697Z,13.90
2018-01-11T22:56:46.356Z,11.37
2018-01-11T22:59:16.233Z,10.33
2018-01-11T23:01:46.923Z,13.43
2018-01-11T23:04:17.339Z,11.40
2018-01-11T23:06:47.168Z,13.60
2018-01-11T23:09:17.756Z,15.47
2018-01-11T23:11:47.928Z,14.43
2018-01-11T23:14:18.648Z,15.93
2018-01-11T23:16:50.136Z,11.20
2018-01-11T23:19:22.400Z,17.43
2018-01-11T23:21:52.516Z,13.73
2018-01-11T23:24:25.328Z,12.50
2018-01-11T23:26:55.146Z,6.80
2018-01-11T23:29:25.079Z,8.47
2018-01-11T23:31:55.488Z,17.03
2018-01-11T23:34:26.585Z,8.90
2018-01-11T23:36:56.807Z,10.80
2018-01-11T23:39:27.193Z,13.07
2018-01-11T23:41:56.805Z,9.60
2018-01-11T23:44:26.383Z,12.00
2018-01-11T23:46:58.064Z,10.77
2018-01-11T23:49:28.997Z,8.97
2018-01-11T23:51:58.660Z,12.00
2018-01-11T23:54:29.775Z,14.23
2018-01-11T23:56:59.809Z,12.43
2018-01-11T23:59:30.044Z,15.67
